createdAt,value
2023-05-23T00:00:11.761Z,18231.16
2023-05-23T00:04:13.196Z,18167.72
2023-05-23T00:08:14.712Z,18163.63
2023-05-23T00:12:17.579Z,18165.69
2023-05-23T00:16:19.089Z,18169.78
2023-05-23T00:20:20.552Z,18155.44
2023-05-23T00:24:22.231Z,18173.88
2023-05-23T00:28:25.025Z,18145.22
2023-05-23T00:32:26.457Z,18135.00
2023-05-23T00:36:27.865Z,18124.75
2023-05-23T00:40:29.606Z,18173.88
2023-05-23T00:44:32.475Z,18128.84
2023-05-23T00:48:34.040Z,18108.41
2023-05-23T00:52:36.388Z,18139.09
2023-05-23T00:56:38.577Z,18139.09
2023-05-23T01:00:42.770Z,18145.22
2023-05-23T01:04:44.503Z,18124.75
2023-05-23T01:08:45.919Z,18124.75
2023-05-23T01:12:56.063Z,18135.00
2023-05-23T01:17:04.682Z,18202.50
2023-05-23T01:21:09.495Z,18188.19
2023-05-23T01:25:23.369Z,18167.72
2023-05-23T01:29:29.542Z,18112.50
2023-05-23T01:33:32.474Z,18153.41
2023-05-23T01:37:33.923Z,18169.78
2023-05-23T01:41:35.543Z,18180.00
2023-05-23T01:45:39.458Z,18177.97
2023-05-23T01:49:41.972Z,18190.22
2023-05-23T01:53:43.916Z,18132.94
2023-05-23T01:57:47.614Z,18147.28
2023-05-23T02:01:50.456Z,18202.50
2023-05-23T02:05:51.867Z,18194.31
2023-05-23T02:09:53.425Z,18177.97
2023-05-23T02:13:54.866Z,18218.88
2023-05-23T02:17:57.710Z,18165.69
2023-05-23T02:21:59.192Z,18180.00
2023-05-23T02:26:00.605Z,18190.22
2023-05-23T02:30:02.038Z,18184.09
2023-05-23T02:34:04.785Z,18202.50
2023-05-23T02:38:06.219Z,18198.41
2023-05-23T02:42:07.772Z,18128.84
2023-05-23T02:46:09.468Z,18151.34
2023-05-23T02:50:12.676Z,18182.03
2023-05-23T02:54:14.461Z,18128.84
2023-05-23T02:58:15.911Z,18112.50
2023-05-23T03:02:17.363Z,18175.91
2023-05-23T03:06:20.177Z,18155.44
2023-05-23T03:10:21.586Z,18128.84
2023-05-23T03:14:23.008Z,18155.44
2023-05-23T03:18:24.467Z,18094.06
2023-05-23T03:22:27.206Z,18118.63
2023-05-23T03:26:28.675Z,18163.63
2023-05-23T03:30:30.056Z,18100.22
2023-05-23T03:34:31.441Z,18112.50
2023-05-23T03:38:34.352Z,18100.22
2023-05-23T03:42:36.687Z,18126.81
2023-05-23T03:46:39.750Z,18108.41
2023-05-23T03:50:41.777Z,18094.06
2023-05-23T03:54:44.486Z,18077.72
2023-05-23T03:58:45.879Z,18124.75
2023-05-23T04:02:47.450Z,18087.94
2023-05-23T04:06:48.932Z,18083.84
2023-05-23T04:10:51.920Z,18077.72
2023-05-23T04:14:53.324Z,18180.00
2023-05-23T04:18:54.843Z,18077.72
2023-05-23T04:22:56.312Z,18071.56
2023-05-23T04:26:59.068Z,18118.63
2023-05-23T04:31:00.567Z,18124.75
2023-05-23T04:35:02.059Z,18135.00
2023-05-23T04:39:04.062Z,18124.75
2023-05-23T04:43:07.081Z,18096.13
2023-05-23T04:47:08.816Z,18067.47
2023-05-23T04:51:10.261Z,18092.03
2023-05-23T04:55:11.803Z,18122.72
2023-05-23T04:59:14.657Z,18145.22
2023-05-23T05:03:16.062Z,18139.09
2023-05-23T05:07:19.013Z,18139.09
2023-05-23T05:11:20.436Z,18100.22
2023-05-23T05:15:23.230Z,18079.75
2023-05-23T05:19:24.740Z,18104.31
2023-05-23T05:23:27.013Z,18106.34
2023-05-23T05:27:28.413Z,18141.13
2023-05-23T05:31:31.255Z,18126.81
2023-05-23T05:35:33.537Z,18153.41
2023-05-23T05:39:35.222Z,18173.88
2023-05-23T05:43:36.726Z,18132.94
2023-05-23T05:47:39.568Z,18139.09
2023-05-23T05:51:41.076Z,18114.53
2023-05-23T05:55:42.524Z,18089.97
2023-05-23T05:59:43.985Z,18104.31
2023-05-23T06:03:46.904Z,18110.44
2023-05-23T06:07:49.275Z,18147.28
2023-05-23T06:11:50.796Z,18137.03
2023-05-23T06:15:52.300Z,18116.56
2023-05-23T06:19:55.096Z,18130.91
2023-05-23T06:23:56.724Z,18112.50
2023-05-23T06:27:58.374Z,18157.50
2023-05-23T06:31:59.908Z,18149.31
2023-05-23T06:36:02.786Z,18108.41
2023-05-23T06:40:05.182Z,18137.03
2023-05-23T06:44:06.874Z,18120.66
2023-05-23T06:48:08.313Z,18173.88
2023-05-23T06:52:11.131Z,18124.75
2023-05-23T06:56:12.563Z,18145.22
2023-05-23T07:00:14.775Z,18153.41
2023-05-23T07:04:16.235Z,18214.78
2023-05-23T07:08:19.044Z,18128.84
2023-05-23T07:12:20.531Z,18204.56
2023-05-23T07:16:21.989Z,18175.91
2023-05-23T07:20:23.462Z,18177.97
2023-05-23T07:24:26.233Z,18186.13
2023-05-23T07:28:27.751Z,18177.97
2023-05-23T07:32:29.219Z,18239.34
2023-05-23T07:36:34.077Z,18263.88
2023-05-23T07:40:37.439Z,18265.94
2023-05-23T07:44:38.891Z,18272.06
2023-05-23T07:48:40.359Z,18306.84
2023-05-23T07:52:41.824Z,18306.84
2023-05-23T07:56:44.599Z,18323.22
2023-05-23T08:00:46.086Z,18333.44
2023-05-23T08:04:49.045Z,18329.34
2023-05-23T08:08:50.894Z,18249.56
2023-05-23T08:12:53.669Z,18251.59
2023-05-23T08:16:55.207Z,18278.19
2023-05-23T08:20:56.714Z,18276.16
2023-05-23T08:24:58.144Z,18255.69
2023-05-23T08:29:00.949Z,18220.91
2023-05-23T08:33:02.648Z,18202.50
2023-05-23T08:37:04.551Z,18157.50
2023-05-23T08:41:19.898Z,18218.88
2023-05-23T08:45:23.048Z,18188.19
2023-05-23T08:49:25.292Z,18202.50
2023-05-23T08:53:27.209Z,18165.69
2023-05-23T08:57:28.673Z,18153.41
2023-05-23T09:01:32.551Z,18137.03
2023-05-23T09:05:34.136Z,18196.38
2023-05-23T09:09:35.680Z,18192.28
2023-05-23T09:13:37.114Z,18128.84
2023-05-23T09:17:40.434Z,18073.63
2023-05-23T09:21:43.524Z,18114.53
2023-05-23T09:25:47.036Z,18137.03
2023-05-23T09:29:49.083Z,18132.94
2023-05-23T09:33:52.881Z,18116.56
2023-05-23T09:37:54.340Z,18108.41
2023-05-23T09:41:55.782Z,18112.50
2023-05-23T09:46:01.040Z,18124.75
2023-05-23T09:50:04.962Z,18042.94
2023-05-23T09:54:06.493Z,18087.94
2023-05-23T09:58:08.857Z,18114.53
2023-05-23T10:02:12.452Z,18169.78
2023-05-23T10:06:20.756Z,18558.50
2023-05-23T10:10:22.834Z,18437.78
2023-05-23T10:14:26.219Z,18366.19
2023-05-23T10:18:30.711Z,18351.84
2023-05-23T10:22:33.906Z,18871.56
2023-05-23T10:26:36.404Z,19593.94
2023-05-23T10:30:38.345Z,19334.03
2023-05-23T10:34:45.669Z,19456.81
2023-05-23T10:38:54.271Z,18904.31
2023-05-23T10:43:01.660Z,18650.56
2023-05-23T10:47:04.024Z,18685.34
2023-05-23T10:51:06.937Z,18623.97
2023-05-23T10:55:14.910Z,18548.28
2023-05-23T10:59:20.764Z,18515.53
2023-05-23T11:03:50.611Z,18505.31
2023-05-23T11:08:10.792Z,18476.66
2023-05-23T11:12:13.656Z,18421.41
2023-05-23T11:16:24.657Z,18403.00
2023-05-23T11:20:26.937Z,18464.38
2023-05-23T11:24:48.829Z,18472.56
2023-05-23T11:28:58.295Z,18648.53
2023-05-23T11:32:59.840Z,18750.84
2023-05-23T11:37:01.365Z,18930.91
2023-05-23T11:41:03.019Z,19729.03
2023-05-23T11:45:09.194Z,19364.72
2023-05-23T11:49:11.549Z,19847.72
2023-05-23T11:53:13.334Z,19049.59
2023-05-23T11:57:14.810Z,18832.69
2023-05-23T12:01:17.688Z,18769.25
2023-05-23T12:05:19.196Z,18951.38
2023-05-23T12:09:20.981Z,18947.28
2023-05-23T12:13:24.771Z,18871.56
2023-05-23T12:17:27.705Z,18734.47
2023-05-23T12:21:41.478Z,18593.28
2023-05-23T12:25:44.445Z,18558.50
2023-05-23T12:29:51.000Z,18517.59
2023-05-23T12:33:53.841Z,18517.59
2023-05-23T12:37:56.546Z,18693.53
2023-05-23T12:42:07.619Z,18683.31
2023-05-23T12:46:09.324Z,18769.25
2023-05-23T12:50:12.566Z,18771.28
2023-05-23T12:54:13.979Z,18677.19
2023-05-23T12:58:16.435Z,18822.44
2023-05-23T13:02:17.964Z,18951.38
2023-05-23T13:06:20.749Z,19270.59
2023-05-23T13:10:22.207Z,19391.34
2023-05-23T13:14:24.205Z,19346.31
2023-05-23T13:18:26.041Z,19215.34
2023-05-23T13:22:28.944Z,19317.66
2023-05-23T13:26:30.372Z,19018.88
2023-05-23T13:30:32.236Z,18955.47
2023-05-23T13:34:33.769Z,19284.91
2023-05-23T13:38:37.547Z,19172.38
2023-05-23T13:42:39.408Z,19254.22
2023-05-23T13:46:40.872Z,19233.75
2023-05-23T13:50:43.474Z,19018.88
2023-05-23T13:54:46.558Z,19049.59
2023-05-23T13:58:48.040Z,19141.66
2023-05-23T14:02:49.626Z,19104.84
2023-05-23T14:06:51.156Z,19331.97
2023-05-23T14:10:54.012Z,19458.88
2023-05-23T14:14:55.656Z,19338.13
2023-05-23T14:18:57.298Z,19307.44
2023-05-23T14:22:58.764Z,19110.97
2023-05-23T14:27:01.508Z,19227.63
2023-05-23T14:31:03.326Z,19065.97
2023-05-23T14:35:05.894Z,18930.91
2023-05-23T14:39:08.461Z,18892.03
2023-05-23T14:43:13.190Z,19022.97
2023-05-23T14:47:14.820Z,18973.88
2023-05-23T14:51:27.462Z,18967.72
2023-05-23T14:55:36.441Z,18861.31
2023-05-23T14:59:39.303Z,18869.50
2023-05-23T15:03:40.940Z,18746.75
2023-05-23T15:07:42.471Z,18730.38
2023-05-23T15:11:44.443Z,18732.41
2023-05-23T15:15:47.535Z,18734.47
2023-05-23T15:19:48.997Z,18754.94
2023-05-23T15:23:51.506Z,18767.19
2023-05-23T15:27:53.022Z,18691.50
2023-05-23T15:31:55.902Z,18689.44
2023-05-23T15:35:57.368Z,18685.34
2023-05-23T15:39:58.839Z,18677.19
2023-05-23T15:44:00.324Z,18623.97
2023-05-23T15:48:03.562Z,18599.41
2023-05-23T15:52:05.421Z,18611.69
2023-05-23T15:56:06.923Z,18595.34
2023-05-23T16:00:09.832Z,18642.38
2023-05-23T16:04:13.022Z,18656.72
2023-05-23T16:08:14.551Z,18642.38
2023-05-23T16:12:16.184Z,18632.16
2023-05-23T16:16:17.653Z,18599.41
2023-05-23T16:20:20.775Z,18578.97
2023-05-23T16:24:22.226Z,18570.78
2023-05-23T16:28:23.730Z,18517.59
2023-05-23T16:32:25.164Z,18521.66
2023-05-23T16:36:27.993Z,18548.28
2023-05-23T16:40:29.431Z,18517.59
2023-05-23T16:44:30.890Z,18529.84
2023-05-23T16:48:32.360Z,18486.88
2023-05-23T16:52:35.148Z,18456.19
2023-05-23T16:56:36.665Z,18419.38
2023-05-23T17:00:38.264Z,18405.06
2023-05-23T17:04:40.027Z,18415.28
2023-05-23T17:08:42.847Z,18390.72
2023-05-23T17:12:44.306Z,18396.88
2023-05-23T17:16:45.747Z,18423.47
2023-05-23T17:20:47.169Z,18413.22
2023-05-23T17:24:49.935Z,18419.38
2023-05-23T17:28:51.445Z,18358.00
2023-05-23T17:32:52.923Z,18362.09
2023-05-23T17:36:54.374Z,18355.94
2023-05-23T17:40:57.381Z,18364.13
2023-05-23T17:44:58.781Z,18353.91
2023-05-23T17:49:00.202Z,18337.53
2023-05-23T17:53:04.069Z,18300.72
2023-05-23T17:57:07.360Z,18315.03
2023-05-23T18:01:08.903Z,18280.25
2023-05-23T18:05:10.397Z,18292.53
2023-05-23T18:09:11.835Z,18278.19
2023-05-23T18:13:15.263Z,18290.47
2023-05-23T18:17:16.778Z,18265.94
2023-05-23T18:21:18.437Z,18251.59
2023-05-23T18:25:19.997Z,18253.66
2023-05-23T18:29:22.769Z,18194.31
2023-05-23T18:33:24.375Z,18202.50
2023-05-23T18:37:26.171Z,18196.38
2023-05-23T18:41:27.682Z,18190.22
2023-05-23T18:45:30.456Z,18161.59
2023-05-23T18:49:31.941Z,18182.03
2023-05-23T18:53:33.462Z,18157.50
2023-05-23T18:57:34.938Z,18124.75
2023-05-23T19:01:37.766Z,18120.66
2023-05-23T19:05:39.227Z,18108.41
2023-05-23T19:09:41.471Z,18135.00
2023-05-23T19:13:42.876Z,18120.66
2023-05-23T19:17:45.753Z,18104.31
2023-05-23T19:21:47.213Z,18104.31
2023-05-23T19:25:48.844Z,18077.72
2023-05-23T19:29:50.313Z,18051.13
2023-05-23T19:33:53.172Z,18079.75
2023-05-23T19:37:54.597Z,18059.28
2023-05-23T19:41:56.221Z,18020.44
2023-05-23T19:45:57.711Z,18040.88
2023-05-23T19:50:00.568Z,18034.75
2023-05-23T19:54:02.117Z,18018.38
2023-05-23T19:58:03.650Z,17985.66
2023-05-23T20:02:05.217Z,17959.06
2023-05-23T20:06:08.234Z,17997.94
2023-05-23T20:10:10.159Z,17987.69
2023-05-23T20:14:11.883Z,17997.94
2023-05-23T20:18:13.367Z,17981.56
2023-05-23T20:22:16.208Z,17985.66
2023-05-23T20:26:17.718Z,17989.75
2023-05-23T20:30:19.360Z,17918.13
2023-05-23T20:34:20.859Z,17948.81
2023-05-23T20:38:23.652Z,17940.66
2023-05-23T20:42:25.092Z,17959.06
2023-05-23T20:46:26.888Z,17967.25
2023-05-23T20:50:28.408Z,17936.56
2023-05-23T20:54:31.357Z,17912.00
2023-05-23T20:58:32.797Z,17924.28
2023-05-23T21:02:34.410Z,17928.38
2023-05-23T21:06:36.214Z,17869.03
2023-05-23T21:10:39.211Z,17909.97
2023-05-23T21:14:40.745Z,17920.19
2023-05-23T21:18:42.345Z,17914.06
2023-05-23T21:22:43.996Z,17877.22
2023-05-23T21:26:46.782Z,17912.00
2023-05-23T21:30:48.495Z,17881.31
2023-05-23T21:34:49.994Z,17858.81
2023-05-23T21:38:51.552Z,17842.44
2023-05-23T21:42:54.397Z,17842.44
2023-05-23T21:46:55.883Z,17877.22
2023-05-23T21:50:57.468Z,17862.91
2023-05-23T21:54:58.871Z,17826.09
2023-05-23T21:59:01.785Z,17838.34
2023-05-23T22:03:03.387Z,17832.22
2023-05-23T22:07:05.373Z,17822.00
2023-05-23T22:11:06.884Z,17850.63
2023-05-23T22:15:10.904Z,17809.72
2023-05-23T22:19:12.656Z,17789.25
2023-05-23T22:23:14.400Z,17764.72
2023-05-23T22:27:15.817Z,17789.25
2023-05-23T22:31:18.785Z,17791.31
2023-05-23T22:35:20.524Z,17795.41
2023-05-23T22:39:21.943Z,17789.25
2023-05-23T22:43:23.407Z,17789.25
2023-05-23T22:47:26.325Z,17789.25
2023-05-23T22:51:27.819Z,17772.91
2023-05-23T22:55:29.355Z,17783.13
2023-05-23T22:59:30.807Z,17768.81
2023-05-23T23:03:33.845Z,17760.63
2023-05-23T23:07:35.350Z,17752.44
2023-05-23T23:11:36.839Z,17738.13
2023-05-23T23:15:38.346Z,17744.25
2023-05-23T23:19:41.132Z,17725.84
2023-05-23T23:23:42.589Z,17734.03
2023-05-23T23:27:44.557Z,17736.06
2023-05-23T23:31:46.052Z,17723.81
2023-05-23T23:35:49.212Z,17746.31
2023-05-23T23:39:50.774Z,17699.25
2023-05-23T23:43:52.327Z,17674.72
2023-05-23T23:47:54.200Z,17691.06
2023-05-23T23:51:57.089Z,17693.13
2023-05-23T23:55:58.698Z,17689.03
